sensor_id;sensor_type;location;lat;lon;timestamp;P1;durP1;ratioP1;P2;durP2;ratioP2
20391;SDS011;10355;53.688;10.078;2023-05-23T00:00:02;11.32;;;6.32;;
20391;SDS011;10355;53.688;10.078;2023-05-23T00:02:52;10.32;;;6.43;;
20391;SDS011;10355;53.688;10.078;2023-05-23T00:05:35;11.50;;;6.75;;
20391;SDS011;10355;53.688;10.078;2023-05-23T00:08:18;11.57;;;6.50;;
20391;SDS011;10355;53.688;10.078;2023-05-23T00:11:03;10.77;;;6.97;;
20391;SDS011;10355;53.688;10.078;2023-05-23T00:13:45;9.70;;;7.07;;
20391;SDS011;10355;53.688;10.078;2023-05-23T00:16:28;10.35;;;7.53;;
20391;SDS011;10355;53.688;10.078;2023-05-23T00:19:11;11.55;;;7.43;;
20391;SDS011;10355;53.688;10.078;2023-05-23T00:21:56;9.43;;;7.43;;
20391;SDS011;10355;53.688;10.078;2023-05-23T00:24:39;12.35;;;8.10;;
20391;SDS011;10355;53.688;10.078;2023-05-23T00:27:23;10.52;;;7.35;;
20391;SDS011;10355;53.688;10.078;2023-05-23T00:30:06;12.02;;;8.25;;
20391;SDS011;10355;53.688;10.078;2023-05-23T00:32:51;12.07;;;7.65;;
20391;SDS011;10355;53.688;10.078;2023-05-23T00:35:34;8.57;;;6.90;;
20391;SDS011;10355;53.688;10.078;2023-05-23T00:38:17;9.68;;;7.07;;
20391;SDS011;10355;53.688;10.078;2023-05-23T00:41:00;9.88;;;7.03;;
20391;SDS011;10355;53.688;10.078;2023-05-23T00:43:44;9.30;;;7.20;;
20391;SDS011;10355;53.688;10.078;2023-05-23T00:46:28;9.70;;;6.90;;
20391;SDS011;10355;53.688;10.078;2023-05-23T00:49:12;8.82;;;7.13;;
20391;SDS011;10355;53.688;10.078;2023-05-23T00:51:55;13.15;;;7.32;;
20391;SDS011;10355;53.688;10.078;2023-05-23T00:54:38;10.63;;;6.20;;
20391;SDS011;10355;53.688;10.078;2023-05-23T00:57:21;8.93;;;6.93;;
20391;SDS011;10355;53.688;10.078;2023-05-23T01:00:06;11.25;;;7.22;;
20391;SDS011;10355;53.688;10.078;2023-05-23T01:02:51;9.00;;;7.20;;
20391;SDS011;10355;53.688;10.078;2023-05-23T01:05:34;9.30;;;7.50;;
20391;SDS011;10355;53.688;10.078;2023-05-23T01:08:16;12.40;;;7.63;;
20391;SDS011;10355;53.688;10.078;2023-05-23T01:11:00;10.57;;;7.10;;
20391;SDS011;10355;53.688;10.078;2023-05-23T01:13:46;10.02;;;7.18;;
20391;SDS011;10355;53.688;10.078;2023-05-23T01:16:38;9.02;;;7.00;;
20391;SDS011;10355;53.688;10.078;2023-05-23T01:19:27;9.27;;;6.97;;
20391;SDS011;10355;53.688;10.078;2023-05-23T01:22:20;9.82;;;7.53;;
20391;SDS011;10355;53.688;10.078;2023-05-23T01:25:06;12.18;;;7.93;;
20391;SDS011;10355;53.688;10.078;2023-05-23T01:27:52;11.02;;;7.00;;
20391;SDS011;10355;53.688;10.078;2023-05-23T01:30:36;9.90;;;7.57;;
20391;SDS011;10355;53.688;10.078;2023-05-23T01:33:20;9.88;;;7.55;;
20391;SDS011;10355;53.688;10.078;2023-05-23T01:36:04;9.82;;;7.00;;
20391;SDS011;10355;53.688;10.078;2023-05-23T01:38:47;11.43;;;7.40;;
20391;SDS011;10355;53.688;10.078;2023-05-23T01:41:29;12.15;;;7.57;;
20391;SDS011;10355;53.688;10.078;2023-05-23T01:44:14;14.23;;;7.95;;
20391;SDS011;10355;53.688;10.078;2023-05-23T01:46:58;12.63;;;7.85;;
20391;SDS011;10355;53.688;10.078;2023-05-23T01:49:42;10.60;;;7.85;;
20391;SDS011;10355;53.688;10.078;2023-05-23T01:52:25;9.93;;;7.40;;
20391;SDS011;10355;53.688;10.078;2023-05-23T01:55:08;9.52;;;7.40;;
20391;SDS011;10355;53.688;10.078;2023-05-23T01:57:52;11.07;;;6.72;;
20391;SDS011;10355;53.688;10.078;2023-05-23T02:00:38;10.02;;;6.60;;
20391;SDS011;10355;53.688;10.078;2023-05-23T02:03:20;8.88;;;6.25;;
20391;SDS011;10355;53.688;10.078;2023-05-23T02:06:04;9.20;;;7.03;;
20391;SDS011;10355;53.688;10.078;2023-05-23T02:08:48;11.23;;;7.63;;
20391;SDS011;10355;53.688;10.078;2023-05-23T02:11:32;8.65;;;6.30;;
20391;SDS011;10355;53.688;10.078;2023-05-23T02:14:14;7.55;;;5.88;;
20391;SDS011;10355;53.688;10.078;2023-05-23T02:17:00;10.68;;;6.40;;
20391;SDS011;10355;53.688;10.078;2023-05-23T02:19:43;12.80;;;7.47;;
20391;SDS011;10355;53.688;10.078;2023-05-23T02:22:26;8.15;;;7.13;;
20391;SDS011;10355;53.688;10.078;2023-05-23T02:25:08;12.90;;;7.68;;
20391;SDS011;10355;53.688;10.078;2023-05-23T02:27:53;9.75;;;7.43;;
20391;SDS011;10355;53.688;10.078;2023-05-23T02:30:35;8.40;;;7.38;;
20391;SDS011;10355;53.688;10.078;2023-05-23T02:33:19;10.25;;;7.90;;
20391;SDS011;10355;53.688;10.078;2023-05-23T02:36:02;9.63;;;7.22;;
20391;SDS011;10355;53.688;10.078;2023-05-23T02:38:45;13.63;;;9.40;;
20391;SDS011;10355;53.688;10.078;2023-05-23T02:41:28;15.82;;;11.02;;
20391;SDS011;10355;53.688;10.078;2023-05-23T02:44:11;21.42;;;14.27;;
20391;SDS011;10355;53.688;10.078;2023-05-23T02:46:55;22.73;;;15.38;;
20391;SDS011;10355;53.688;10.078;2023-05-23T02:49:39;23.90;;;16.00;;
20391;SDS011;10355;53.688;10.078;2023-05-23T02:52:21;24.95;;;17.02;;
20391;SDS011;10355;53.688;10.078;2023-05-23T02:55:05;26.23;;;18.35;;
20391;SDS011;10355;53.688;10.078;2023-05-23T02:57:53;25.90;;;18.45;;
20391;SDS011;10355;53.688;10.078;2023-05-23T03:00:37;27.50;;;18.35;;
20391;SDS011;10355;53.688;10.078;2023-05-23T03:03:20;27.30;;;18.88;;
20391;SDS011;10355;53.688;10.078;2023-05-23T03:06:04;26.95;;;18.27;;
20391;SDS011;10355;53.688;10.078;2023-05-23T03:08:47;28.10;;;19.30;;
20391;SDS011;10355;53.688;10.078;2023-05-23T03:11:30;32.65;;;20.67;;
20391;SDS011;10355;53.688;10.078;2023-05-23T03:14:13;32.72;;;20.90;;
20391;SDS011;10355;53.688;10.078;2023-05-23T03:16:56;34.80;;;21.00;;
20391;SDS011;10355;53.688;10.078;2023-05-23T03:19:39;29.50;;;19.67;;
20391;SDS011;10355;53.688;10.078;2023-05-23T03:22:23;35.15;;;20.92;;
20391;SDS011;10355;53.688;10.078;2023-05-23T03:25:06;31.17;;;19.23;;
20391;SDS011;10355;53.688;10.078;2023-05-23T03:27:49;34.15;;;20.58;;
20391;SDS011;10355;53.688;10.078;2023-05-23T03:30:31;34.60;;;19.50;;
20391;SDS011;10355;53.688;10.078;2023-05-23T03:33:14;32.63;;;19.98;;
20391;SDS011;10355;53.688;10.078;2023-05-23T03:35:57;34.42;;;18.90;;
20391;SDS011;10355;53.688;10.078;2023-05-23T03:38:41;32.33;;;19.52;;
20391;SDS011;10355;53.688;10.078;2023-05-23T03:41:24;35.38;;;20.58;;
20391;SDS011;10355;53.688;10.078;2023-05-23T03:44:07;31.20;;;19.73;;
20391;SDS011;10355;53.688;10.078;2023-05-23T03:46:50;35.10;;;19.63;;
20391;SDS011;10355;53.688;10.078;2023-05-23T03:49:34;34.38;;;19.40;;
20391;SDS011;10355;53.688;10.078;2023-05-23T03:52:16;38.47;;;20.40;;
20391;SDS011;10355;53.688;10.078;2023-05-23T03:55:01;38.22;;;20.17;;
20391;SDS011;10355;53.688;10.078;2023-05-23T03:57:44;34.20;;;18.67;;
20391;SDS011;10355;53.688;10.078;2023-05-23T04:00:28;35.53;;;18.75;;
20391;SDS011;10355;53.688;10.078;2023-05-23T04:03:12;33.13;;;18.45;;
20391;SDS011;10355;53.688;10.078;2023-05-23T04:05:58;32.45;;;17.58;;
20391;SDS011;10355;53.688;10.078;2023-05-23T04:08:41;33.17;;;18.65;;
20391;SDS011;10355;53.688;10.078;2023-05-23T04:11:26;32.30;;;18.35;;
20391;SDS011;10355;53.688;10.078;2023-05-23T04:14:09;32.90;;;17.85;;
20391;SDS011;10355;53.688;10.078;2023-05-23T04:16:54;29.45;;;16.67;;
20391;SDS011;10355;53.688;10.078;2023-05-23T04:19:37;29.20;;;17.30;;
20391;SDS011;10355;53.688;10.078;2023-05-23T04:22:20;27.70;;;16.13;;
20391;SDS011;10355;53.688;10.078;2023-05-23T04:25:05;29.50;;;16.27;;
20391;SDS011;10355;53.688;10.078;2023-05-23T04:27:54;32.20;;;17.33;;
20391;SDS011;10355;53.688;10.078;2023-05-23T04:30:36;31.65;;;16.52;;
20391;SDS011;10355;53.688;10.078;2023-05-23T04:33:20;28.70;;;16.05;;
20391;SDS011;10355;53.688;10.078;2023-05-23T04:36:03;31.23;;;17.27;;
20391;SDS011;10355;53.688;10.078;2023-05-23T04:38:46;32.70;;;15.82;;
20391;SDS011;10355;53.688;10.078;2023-05-23T04:41:29;29.17;;;15.77;;
20391;SDS011;10355;53.688;10.078;2023-05-23T04:44:21;29.40;;;16.17;;
20391;SDS011;10355;53.688;10.078;2023-05-23T04:47:22;29.27;;;15.50;;
20391;SDS011;10355;53.688;10.078;2023-05-23T04:50:16;32.80;;;16.42;;
20391;SDS011;10355;53.688;10.078;2023-05-23T04:53:02;29.33;;;16.08;;
20391;SDS011;10355;53.688;10.078;2023-05-23T04:55:45;28.92;;;15.20;;
20391;SDS011;10355;53.688;10.078;2023-05-23T04:58:30;33.88;;;16.45;;
20391;SDS011;10355;53.688;10.078;2023-05-23T05:01:19;30.20;;;16.40;;
20391;SDS011;10355;53.688;10.078;2023-05-23T05:04:05;32.40;;;16.90;;
20391;SDS011;10355;53.688;10.078;2023-05-23T05:06:48;29.30;;;15.45;;
20391;SDS011;10355;53.688;10.078;2023-05-23T05:09:31;33.13;;;16.65;;
20391;SDS011;10355;53.688;10.078;2023-05-23T05:12:14;33.80;;;17.10;;
20391;SDS011;10355;53.688;10.078;2023-05-23T05:14:57;30.25;;;16.33;;
20391;SDS011;10355;53.688;10.078;2023-05-23T05:17:42;32.53;;;16.40;;
20391;SDS011;10355;53.688;10.078;2023-05-23T05:20:28;35.63;;;18.25;;
20391;SDS011;10355;53.688;10.078;2023-05-23T05:23:11;36.28;;;18.42;;
20391;SDS011;10355;53.688;10.078;2023-05-23T05:25:54;34.63;;;17.70;;
20391;SDS011;10355;53.688;10.078;2023-05-23T05:28:37;32.92;;;17.15;;
20391;SDS011;10355;53.688;10.078;2023-05-23T05:31:21;36.33;;;17.58;;
20391;SDS011;10355;53.688;10.078;2023-05-23T05:34:05;33.75;;;17.90;;
20391;SDS011;10355;53.688;10.078;2023-05-23T05:36:48;29.10;;;16.90;;
20391;SDS011;10355;53.688;10.078;2023-05-23T05:39:35;32.80;;;17.70;;
20391;SDS011;10355;53.688;10.078;2023-05-23T05:42:18;33.88;;;17.52;;
20391;SDS011;10355;53.688;10.078;2023-05-23T05:45:01;34.15;;;18.17;;
20391;SDS011;10355;53.688;10.078;2023-05-23T05:47:46;37.63;;;17.38;;
20391;SDS011;10355;53.688;10.078;2023-05-23T05:50:33;32.08;;;17.80;;
20391;SDS011;10355;53.688;10.078;2023-05-23T05:53:16;34.13;;;17.83;;
20391;SDS011;10355;53.688;10.078;2023-05-23T05:55:58;34.75;;;17.40;;
20391;SDS011;10355;53.688;10.078;2023-05-23T05:58:42;34.80;;;17.80;;
20391;SDS011;10355;53.688;10.078;2023-05-23T06:01:27;36.95;;;18.88;;
20391;SDS011;10355;53.688;10.078;2023-05-23T06:04:11;34.90;;;18.23;;
20391;SDS011;10355;53.688;10.078;2023-05-23T06:06:56;33.58;;;17.83;;
20391;SDS011;10355;53.688;10.078;2023-05-23T06:09:38;33.13;;;18.48;;
20391;SDS011;10355;53.688;10.078;2023-05-23T06:12:21;35.25;;;18.90;;
20391;SDS011;10355;53.688;10.078;2023-05-23T06:15:04;32.60;;;16.95;;
20391;SDS011;10355;53.688;10.078;2023-05-23T06:17:47;31.90;;;17.60;;
20391;SDS011;10355;53.688;10.078;2023-05-23T06:20:30;32.63;;;17.30;;
20391;SDS011;10355;53.688;10.078;2023-05-23T06:23:17;27.42;;;15.82;;
20391;SDS011;10355;53.688;10.078;2023-05-23T06:26:01;34.85;;;18.27;;
20391;SDS011;10355;53.688;10.078;2023-05-23T06:28:44;29.60;;;15.90;;
20391;SDS011;10355;53.688;10.078;2023-05-23T06:31:26;35.47;;;18.05;;
20391;SDS011;10355;53.688;10.078;2023-05-23T06:34:09;31.23;;;17.83;;
20391;SDS011;10355;53.688;10.078;2023-05-23T06:36:53;35.70;;;19.33;;
20391;SDS011;10355;53.688;10.078;2023-05-23T06:39:37;35.05;;;19.73;;
20391;SDS011;10355;53.688;10.078;2023-05-23T06:42:20;36.58;;;19.38;;
20391;SDS011;10355;53.688;10.078;2023-05-23T06:45:10;36.20;;;19.20;;
20391;SDS011;10355;53.688;10.078;2023-05-23T06:47:57;36.83;;;18.63;;
20391;SDS011;10355;53.688;10.078;2023-05-23T06:50:41;32.30;;;17.20;;
20391;SDS011;10355;53.688;10.078;2023-05-23T06:53:25;33.33;;;17.30;;
20391;SDS011;10355;53.688;10.078;2023-05-23T06:56:09;24.67;;;13.77;;
20391;SDS011;10355;53.688;10.078;2023-05-23T06:59:03;23.27;;;13.38;;
20391;SDS011;10355;53.688;10.078;2023-05-23T07:01:45;22.60;;;12.35;;
20391;SDS011;10355;53.688;10.078;2023-05-23T07:04:28;18.20;;;10.75;;
20391;SDS011;10355;53.688;10.078;2023-05-23T07:07:16;17.55;;;8.93;;
20391;SDS011;10355;53.688;10.078;2023-05-23T07:09:58;14.68;;;9.07;;
20391;SDS011;10355;53.688;10.078;2023-05-23T07:12:42;16.58;;;9.05;;
20391;SDS011;10355;53.688;10.078;2023-05-23T07:15:25;10.75;;;7.35;;
20391;SDS011;10355;53.688;10.078;2023-05-23T07:18:18;10.55;;;6.95;;
20391;SDS011;10355;53.688;10.078;2023-05-23T07:21:01;9.35;;;6.53;;
20391;SDS011;10355;53.688;10.078;2023-05-23T07:23:44;9.63;;;6.10;;
20391;SDS011;10355;53.688;10.078;2023-05-23T07:26:26;10.25;;;5.57;;
20391;SDS011;10355;53.688;10.078;2023-05-23T07:29:11;8.60;;;5.43;;
20391;SDS011;10355;53.688;10.078;2023-05-23T07:31:54;7.72;;;5.75;;
20391;SDS011;10355;53.688;10.078;2023-05-23T07:34:37;10.38;;;5.63;;
20391;SDS011;10355;53.688;10.078;2023-05-23T07:37:20;7.18;;;5.07;;
20391;SDS011;10355;53.688;10.078;2023-05-23T07:40:03;7.88;;;5.22;;
20391;SDS011;10355;53.688;10.078;2023-05-23T07:42:46;7.28;;;5.00;;
20391;SDS011;10355;53.688;10.078;2023-05-23T07:45:30;7.72;;;4.38;;
20391;SDS011;10355;53.688;10.078;2023-05-23T07:48:14;8.40;;;4.63;;
20391;SDS011;10355;53.688;10.078;2023-05-23T07:50:56;6.65;;;3.97;;
20391;SDS011;10355;53.688;10.078;2023-05-23T07:53:39;6.78;;;4.13;;
20391;SDS011;10355;53.688;10.078;2023-05-23T07:56:25;6.38;;;4.47;;
20391;SDS011;10355;53.688;10.078;2023-05-23T07:59:08;5.75;;;4.07;;
20391;SDS011;10355;53.688;10.078;2023-05-23T08:01:53;10.43;;;4.22;;
20391;SDS011;10355;53.688;10.078;2023-05-23T08:04:37;6.00;;;4.13;;
20391;SDS011;10355;53.688;10.078;2023-05-23T08:07:21;5.97;;;3.85;;
20391;SDS011;10355;53.688;10.078;2023-05-23T08:10:08;8.15;;;3.88;;
20391;SDS011;10355;53.688;10.078;2023-05-23T08:12:52;8.18;;;3.92;;
20391;SDS011;10355;53.688;10.078;2023-05-23T08:15:35;7.38;;;3.78;;
20391;SDS011;10355;53.688;10.078;2023-05-23T08:18:28;6.53;;;4.40;;
20391;SDS011;10355;53.688;10.078;2023-05-23T08:21:11;5.05;;;3.63;;
20391;SDS011;10355;53.688;10.078;2023-05-23T08:23:54;6.43;;;3.78;;
20391;SDS011;10355;53.688;10.078;2023-05-23T08:26:37;7.28;;;3.85;;
20391;SDS011;10355;53.688;10.078;2023-05-23T08:29:25;5.63;;;3.58;;
20391;SDS011;10355;53.688;10.078;2023-05-23T08:32:08;5.25;;;3.53;;
20391;SDS011;10355;53.688;10.078;2023-05-23T08:34:54;4.97;;;3.30;;
20391;SDS011;10355;53.688;10.078;2023-05-23T08:37:37;7.25;;;3.63;;
20391;SDS011;10355;53.688;10.078;2023-05-23T08:40:20;6.88;;;3.42;;
20391;SDS011;10355;53.688;10.078;2023-05-23T08:43:16;5.72;;;3.25;;
20391;SDS011;10355;53.688;10.078;2023-05-23T08:45:59;4.75;;;2.95;;
20391;SDS011;10355;53.688;10.078;2023-05-23T08:48:47;6.40;;;3.08;;
20391;SDS011;10355;53.688;10.078;2023-05-23T08:51:34;3.75;;;2.30;;
20391;SDS011;10355;53.688;10.078;2023-05-23T08:54:22;6.00;;;2.40;;
20391;SDS011;10355;53.688;10.078;2023-05-23T08:57:06;4.07;;;2.58;;
20391;SDS011;10355;53.688;10.078;2023-05-23T08:59:55;3.70;;;2.28;;
20391;SDS011;10355;53.688;10.078;2023-05-23T09:02:39;4.47;;;2.58;;
20391;SDS011;10355;53.688;10.078;2023-05-23T09:05:33;4.35;;;2.60;;
20391;SDS011;10355;53.688;10.078;2023-05-23T09:08:17;8.00;;;2.83;;
20391;SDS011;10355;53.688;10.078;2023-05-23T09:11:01;5.63;;;3.17;;
20391;SDS011;10355;53.688;10.078;2023-05-23T09:13:47;4.50;;;2.72;;
20391;SDS011;10355;53.688;10.078;2023-05-23T09:16:31;5.13;;;3.40;;
20391;SDS011;10355;53.688;10.078;2023-05-23T09:19:19;6.07;;;3.05;;
20391;SDS011;10355;53.688;10.078;2023-05-23T09:22:07;5.95;;;3.63;;
20391;SDS011;10355;53.688;10.078;2023-05-23T09:25:05;6.47;;;3.60;;
20391;SDS011;10355;53.688;10.078;2023-05-23T09:27:50;6.82;;;3.95;;
20391;SDS011;10355;53.688;10.078;2023-05-23T09:30:33;7.45;;;4.18;;
20391;SDS011;10355;53.688;10.078;2023-05-23T09:33:16;7.18;;;3.72;;
20391;SDS011;10355;53.688;10.078;2023-05-23T09:35:59;5.90;;;3.60;;
20391;SDS011;10355;53.688;10.078;2023-05-23T09:38:43;6.53;;;3.45;;
20391;SDS011;10355;53.688;10.078;2023-05-23T09:41:28;7.55;;;3.58;;
20391;SDS011;10355;53.688;10.078;2023-05-23T09:44:11;7.22;;;3.15;;
20391;SDS011;10355;53.688;10.078;2023-05-23T09:46:55;5.97;;;2.85;;
20391;SDS011;10355;53.688;10.078;2023-05-23T09:49:39;5.22;;;2.42;;
20391;SDS011;10355;53.688;10.078;2023-05-23T09:52:22;6.25;;;2.33;;
20391;SDS011;10355;53.688;10.078;2023-05-23T09:55:05;4.35;;;1.88;;
20391;SDS011;10355;53.688;10.078;2023-05-23T09:57:51;4.60;;;1.90;;
20391;SDS011;10355;53.688;10.078;2023-05-23T10:00:34;3.28;;;1.50;;
20391;SDS011;10355;53.688;10.078;2023-05-23T10:03:19;4.45;;;1.77;;
20391;SDS011;10355;53.688;10.078;2023-05-23T10:06:04;5.32;;;1.70;;
20391;SDS011;10355;53.688;10.078;2023-05-23T10:08:51;4.93;;;1.77;;
20391;SDS011;10355;53.688;10.078;2023-05-23T10:14:39;3.28;;;1.50;;
20391;SDS011;10355;53.688;10.078;2023-05-23T10:17:25;3.35;;;1.92;;
20391;SDS011;10355;53.688;10.078;2023-05-23T10:20:12;4.22;;;1.85;;
20391;SDS011;10355;53.688;10.078;2023-05-23T10:22:56;4.00;;;2.00;;
20391;SDS011;10355;53.688;10.078;2023-05-23T10:25:39;3.55;;;1.63;;
20391;SDS011;10355;53.688;10.078;2023-05-23T10:28:23;3.17;;;1.77;;
20391;SDS011;10355;53.688;10.078;2023-05-23T10:31:08;6.97;;;1.88;;
20391;SDS011;10355;53.688;10.078;2023-05-23T10:33:52;5.43;;;1.70;;
20391;SDS011;10355;53.688;10.078;2023-05-23T10:36:37;2.97;;;1.40;;
20391;SDS011;10355;53.688;10.078;2023-05-23T10:39:24;2.58;;;1.45;;
20391;SDS011;10355;53.688;10.078;2023-05-23T10:42:10;4.75;;;1.60;;
20391;SDS011;10355;53.688;10.078;2023-05-23T10:44:55;3.05;;;1.35;;
20391;SDS011;10355;53.688;10.078;2023-05-23T10:47:57;2.70;;;1.30;;
20391;SDS011;10355;53.688;10.078;2023-05-23T10:50:41;3.22;;;1.60;;
20391;SDS011;10355;53.688;10.078;2023-05-23T10:53:24;5.53;;;1.42;;
20391;SDS011;10355;53.688;10.078;2023-05-23T10:56:07;3.70;;;1.35;;
20391;SDS011;10355;53.688;10.078;2023-05-23T10:58:53;5.53;;;1.50;;
20391;SDS011;10355;53.688;10.078;2023-05-23T11:01:38;5.50;;;1.60;;
20391;SDS011;10355;53.688;10.078;2023-05-23T11:04:25;6.35;;;1.80;;
20391;SDS011;10355;53.688;10.078;2023-05-23T11:10:09;5.97;;;1.60;;
20391;SDS011;10355;53.688;10.078;2023-05-23T11:12:52;7.50;;;1.40;;
20391;SDS011;10355;53.688;10.078;2023-05-23T11:15:47;4.10;;;1.73;;
20391;SDS011;10355;53.688;10.078;2023-05-23T11:18:30;7.35;;;1.90;;
20391;SDS011;10355;53.688;10.078;2023-05-23T11:21:19;4.45;;;2.00;;
20391;SDS011;10355;53.688;10.078;2023-05-23T11:24:02;8.02;;;1.63;;
20391;SDS011;10355;53.688;10.078;2023-05-23T11:26:51;6.78;;;2.03;;
20391;SDS011;10355;53.688;10.078;2023-05-23T11:29:34;4.28;;;1.52;;
20391;SDS011;10355;53.688;10.078;2023-05-23T11:32:18;6.32;;;1.85;;
20391;SDS011;10355;53.688;10.078;2023-05-23T11:35:01;9.48;;;1.60;;
20391;SDS011;10355;53.688;10.078;2023-05-23T11:37:45;4.20;;;1.95;;
20391;SDS011;10355;53.688;10.078;2023-05-23T11:40:28;5.85;;;1.77;;
20391;SDS011;10355;53.688;10.078;2023-05-23T11:43:12;4.38;;;2.00;;
20391;SDS011;10355;53.688;10.078;2023-05-23T11:45:55;9.07;;;1.70;;
20391;SDS011;10355;53.688;10.078;2023-05-23T11:48:40;9.02;;;1.95;;
20391;SDS011;10355;53.688;10.078;2023-05-23T11:51:26;5.78;;;1.58;;
20391;SDS011;10355;53.688;10.078;2023-05-23T11:54:10;4.43;;;1.67;;
20391;SDS011;10355;53.688;10.078;2023-05-23T11:56:53;7.13;;;1.60;;
20391;SDS011;10355;53.688;10.078;2023-05-23T11:59:36;7.85;;;1.73;;
20391;SDS011;10355;53.688;10.078;2023-05-23T12:02:20;5.72;;;1.75;;
20391;SDS011;10355;53.688;10.078;2023-05-23T12:05:05;7.85;;;2.00;;
20391;SDS011;10355;53.688;10.078;2023-05-23T12:07:48;4.88;;;1.55;;
20391;SDS011;10355;53.688;10.078;2023-05-23T12:10:32;7.78;;;2.08;;
20391;SDS011;10355;53.688;10.078;2023-05-23T12:13:15;8.13;;;1.65;;
20391;SDS011;10355;53.688;10.078;2023-05-23T12:15:58;6.43;;;2.22;;
20391;SDS011;10355;53.688;10.078;2023-05-23T12:18:41;8.75;;;1.90;;
20391;SDS011;10355;53.688;10.078;2023-05-23T12:21:25;7.82;;;1.98;;
20391;SDS011;10355;53.688;10.078;2023-05-23T12:24:13;4.60;;;1.60;;
20391;SDS011;10355;53.688;10.078;2023-05-23T12:26:58;4.25;;;1.67;;
20391;SDS011;10355;53.688;10.078;2023-05-23T12:29:41;5.93;;;1.73;;
20391;SDS011;10355;53.688;10.078;2023-05-23T12:32:24;7.22;;;1.98;;
20391;SDS011;10355;53.688;10.078;2023-05-23T12:35:07;6.07;;;1.80;;
20391;SDS011;10355;53.688;10.078;2023-05-23T12:37:50;10.35;;;2.10;;
20391;SDS011;10355;53.688;10.078;2023-05-23T12:40:38;8.15;;;2.10;;
20391;SDS011;10355;53.688;10.078;2023-05-23T12:43:22;7.40;;;1.90;;
20391;SDS011;10355;53.688;10.078;2023-05-23T12:46:05;7.88;;;2.03;;
20391;SDS011;10355;53.688;10.078;2023-05-23T12:48:47;8.93;;;1.90;;
20391;SDS011;10355;53.688;10.078;2023-05-23T12:51:30;11.07;;;2.13;;
20391;SDS011;10355;53.688;10.078;2023-05-23T12:54:13;7.90;;;2.13;;
20391;SDS011;10355;53.688;10.078;2023-05-23T12:56:56;5.22;;;1.90;;
20391;SDS011;10355;53.688;10.078;2023-05-23T12:59:40;9.13;;;2.13;;
20391;SDS011;10355;53.688;10.078;2023-05-23T13:02:22;7.05;;;1.75;;
20391;SDS011;10355;53.688;10.078;2023-05-23T13:05:06;9.65;;;2.15;;
20391;SDS011;10355;53.688;10.078;2023-05-23T13:07:49;5.45;;;2.13;;
20391;SDS011;10355;53.688;10.078;2023-05-23T13:10:31;9.45;;;1.70;;
20391;SDS011;10355;53.688;10.078;2023-05-23T13:13:14;7.38;;;2.17;;
20391;SDS011;10355;53.688;10.078;2023-05-23T13:15:58;5.85;;;1.58;;
20391;SDS011;10355;53.688;10.078;2023-05-23T13:18:41;11.70;;;2.00;;
20391;SDS011;10355;53.688;10.078;2023-05-23T13:21:24;8.50;;;2.00;;
20391;SDS011;10355;53.688;10.078;2023-05-23T13:24:08;8.55;;;2.30;;
20391;SDS011;10355;53.688;10.078;2023-05-23T13:26:51;4.57;;;1.70;;
20391;SDS011;10355;53.688;10.078;2023-05-23T13:29:33;4.43;;;1.90;;
20391;SDS011;10355;53.688;10.078;2023-05-23T13:32:18;8.48;;;1.65;;
20391;SDS011;10355;53.688;10.078;2023-05-23T13:35:00;7.95;;;1.95;;
20391;SDS011;10355;53.688;10.078;2023-05-23T13:37:43;8.18;;;2.17;;
20391;SDS011;10355;53.688;10.078;2023-05-23T13:40:26;7.22;;;1.85;;
20391;SDS011;10355;53.688;10.078;2023-05-23T13:43:09;7.82;;;1.90;;
20391;SDS011;10355;53.688;10.078;2023-05-23T13:45:51;5.18;;;1.73;;
20391;SDS011;10355;53.688;10.078;2023-05-23T13:48:35;9.30;;;1.83;;
20391;SDS011;10355;53.688;10.078;2023-05-23T13:51:18;10.02;;;2.10;;
20391;SDS011;10355;53.688;10.078;2023-05-23T13:54:01;9.10;;;1.92;;
20391;SDS011;10355;53.688;10.078;2023-05-23T13:56:44;6.63;;;1.80;;
20391;SDS011;10355;53.688;10.078;2023-05-23T13:59:27;6.00;;;1.83;;
20391;SDS011;10355;53.688;10.078;2023-05-23T14:02:09;9.32;;;2.25;;
20391;SDS011;10355;53.688;10.078;2023-05-23T14:04:54;6.43;;;2.00;;
20391;SDS011;10355;53.688;10.078;2023-05-23T14:07:36;10.02;;;1.85;;
20391;SDS011;10355;53.688;10.078;2023-05-23T14:10:19;6.93;;;1.70;;
20391;SDS011;10355;53.688;10.078;2023-05-23T14:13:02;6.53;;;1.50;;
20391;SDS011;10355;53.688;10.078;2023-05-23T14:15:45;5.15;;;1.73;;
20391;SDS011;10355;53.688;10.078;2023-05-23T14:18:28;5.43;;;1.45;;
20391;SDS011;10355;53.688;10.078;2023-05-23T14:21:12;8.50;;;1.75;;
20391;SDS011;10355;53.688;10.078;2023-05-23T14:23:55;5.47;;;1.67;;
20391;SDS011;10355;53.688;10.078;2023-05-23T14:26:38;5.93;;;1.70;;
20391;SDS011;10355;53.688;10.078;2023-05-23T14:29:20;7.45;;;1.45;;
20391;SDS011;10355;53.688;10.078;2023-05-23T14:32:03;10.77;;;2.10;;
20391;SDS011;10355;53.688;10.078;2023-05-23T14:34:46;8.15;;;1.95;;
20391;SDS011;10355;53.688;10.078;2023-05-23T14:37:30;8.68;;;1.80;;
20391;SDS011;10355;53.688;10.078;2023-05-23T14:40:13;5.95;;;1.80;;
20391;SDS011;10355;53.688;10.078;2023-05-23T14:42:56;8.93;;;1.65;;
20391;SDS011;10355;53.688;10.078;2023-05-23T14:45:39;7.93;;;1.77;;
20391;SDS011;10355;53.688;10.078;2023-05-23T14:48:22;5.15;;;1.30;;
20391;SDS011;10355;53.688;10.078;2023-05-23T14:51:05;7.85;;;1.63;;
20391;SDS011;10355;53.688;10.078;2023-05-23T14:53:49;5.32;;;1.55;;
20391;SDS011;10355;53.688;10.078;2023-05-23T14:56:32;5.60;;;1.30;;
20391;SDS011;10355;53.688;10.078;2023-05-23T14:59:14;6.22;;;1.50;;
20391;SDS011;10355;53.688;10.078;2023-05-23T15:01:57;5.72;;;1.40;;
20391;SDS011;10355;53.688;10.078;2023-05-23T15:04:40;6.90;;;1.48;;
20391;SDS011;10355;53.688;10.078;2023-05-23T15:07:23;6.50;;;1.55;;
20391;SDS011;10355;53.688;10.078;2023-05-23T15:10:07;6.05;;;1.55;;
20391;SDS011;10355;53.688;10.078;2023-05-23T15:12:50;5.65;;;1.38;;
20391;SDS011;10355;53.688;10.078;2023-05-23T15:15:35;6.07;;;1.42;;
20391;SDS011;10355;53.688;10.078;2023-05-23T15:18:19;9.27;;;1.77;;
20391;SDS011;10355;53.688;10.078;2023-05-23T15:21:19;5.30;;;1.45;;
20391;SDS011;10355;53.688;10.078;2023-05-23T15:24:02;11.23;;;1.80;;
20391;SDS011;10355;53.688;10.078;2023-05-23T15:26:46;7.47;;;1.80;;
20391;SDS011;10355;53.688;10.078;2023-05-23T15:29:29;6.18;;;1.58;;
20391;SDS011;10355;53.688;10.078;2023-05-23T15:32:14;9.30;;;1.77;;
20391;SDS011;10355;53.688;10.078;2023-05-23T15:34:57;7.75;;;1.90;;
20391;SDS011;10355;53.688;10.078;2023-05-23T15:37:39;8.65;;;2.03;;
20391;SDS011;10355;53.688;10.078;2023-05-23T15:40:23;7.40;;;1.45;;
20391;SDS011;10355;53.688;10.078;2023-05-23T15:43:07;6.90;;;1.70;;
20391;SDS011;10355;53.688;10.078;2023-05-23T15:45:50;7.88;;;1.40;;
20391;SDS011;10355;53.688;10.078;2023-05-23T15:48:33;8.25;;;1.65;;
20391;SDS011;10355;53.688;10.078;2023-05-23T15:51:16;7.75;;;1.60;;
20391;SDS011;10355;53.688;10.078;2023-05-23T15:53:58;8.20;;;1.30;;
20391;SDS011;10355;53.688;10.078;2023-05-23T15:56:42;6.78;;;1.50;;
20391;SDS011;10355;53.688;10.078;2023-05-23T15:59:26;7.28;;;1.48;;
20391;SDS011;10355;53.688;10.078;2023-05-23T16:02:09;7.68;;;1.65;;
20391;SDS011;10355;53.688;10.078;2023-05-23T16:04:51;10.23;;;2.00;;
20391;SDS011;10355;53.688;10.078;2023-05-23T16:07:34;7.18;;;1.80;;
20391;SDS011;10355;53.688;10.078;2023-05-23T16:10:17;6.18;;;1.63;;